Time;durP1;ratioP1;P1;durP2;ratioP2;P2;SDS_P1;SDS_P2;PMS_P1;PMS_P2;Temp;Humidity;BMP_temperature;BMP_pressure;BME280_temperature;BME280_humidity;BME280_pressure;Samples;Min_cycle;Max_cycle;Signal;HPM_P1;HPM_P2
2023/09/30 00:01:59;;;;;;;9.15;4.95;;;;;;;-144.30;52.11;84662.97;5033224;28;20197;-60
2023/09/30 00:04:27;;;;;;;5.32;4.93;;;;;;;-144.30;52.42;84637.13;5033193;28;20279;-60
2023/09/30 00:06:54;;;;;;;7.22;5.55;;;;;;;-144.30;52.62;84686.81;5032944;28;20216;-60
2023/09/30 00:09:21;;;;;;;6.35;5.32;;;;;;;-144.30;52.46;84680.84;5032904;28;20202;-60
2023/09/30 00:11:49;;;;;;;17.45;5.35;;;;;;;-144.30;52.56;84666.94;5033161;28;20227;-60
2023/09/30 00:14:17;;;;;;;12.90;5.35;;;;;;;-144.30;52.58;84653.03;5032866;28;20216;-60
2023/09/30 00:16:44;;;;;;;9.02;5.20;;;;;;;-144.30;52.55;84688.81;5032761;28;20427;-60
2023/09/30 00:19:11;;;;;;;11.30;5.40;;;;;;;-144.30;52.49;84694.75;5032967;28;20244;-60
2023/09/30 00:21:38;;;;;;;8.48;5.95;;;;;;;-144.30;52.52;84692.78;5032537;28;20193;-60
2023/09/30 00:24:05;;;;;;;8.60;5.47;;;;;;;-144.30;52.45;84680.84;5032533;28;20211;-60
2023/09/30 00:26:32;;;;;;;8.98;4.88;;;;;;;-144.30;52.48;84706.69;5032535;28;20203;-60
2023/09/30 00:29:03;;;;;;;5.22;4.72;;;;;;;-144.30;52.51;84668.94;5032763;28;20232;-61
2023/09/30 00:31:30;;;;;;;7.18;4.68;;;;;;;-144.30;52.55;84708.66;5032330;28;20201;-61
2023/09/30 00:33:57;;;;;;;6.00;5.30;;;;;;;-144.30;52.51;84708.66;5032570;28;20194;-60
2023/09/30 00:36:24;;;;;;;15.32;5.50;;;;;;;-144.30;52.31;84688.81;5032444;28;20692;-60
2023/09/30 00:38:52;;;;;;;10.05;5.10;;;;;;;-144.30;52.52;84668.94;5032093;28;20201;-61
2023/09/30 00:41:19;;;;;;;8.05;5.20;;;;;;;-144.30;52.32;84696.75;5032503;28;20200;-63
2023/09/30 00:43:47;;;;;;;7.93;5.15;;;;;;;-144.30;52.61;84740.47;5032292;28;20207;-62
2023/09/30 00:46:27;;;;;;;6.30;5.70;;;;;;;-144.30;52.44;84702.72;5032584;28;20691;-62
2023/09/30 00:48:56;;;;;;;7.97;6.05;;;;;;;-144.30;52.53;84742.47;5032156;28;20783;-62
2023/09/30 00:51:24;;;;;;;14.65;5.75;;;;;;;-144.30;52.71;84728.56;5032053;28;20208;-61
2023/09/30 00:53:51;;;;;;;13.85;6.20;;;;;;;-144.30;52.83;84724.56;5031954;28;20718;-61
2023/09/30 00:56:19;;;;;;;7.93;5.28;;;;;;;-144.30;52.66;84708.66;5032195;28;20197;-61
2023/09/30 00:58:47;;;;;;;7.38;5.95;;;;;;;-144.30;53.00;84720.59;5032111;28;20198;-61
2023/09/30 01:01:16;;;;;;;7.80;5.93;;;;;;;-144.30;52.86;84716.63;5032112;28;20201;-61
2023/09/30 01:03:43;;;;;;;8.88;5.50;;;;;;;-144.30;53.11;84710.66;5031976;28;20198;-61
2023/09/30 01:06:10;;;;;;;11.38;5.90;;;;;;;-144.30;53.15;84706.69;5032076;28;20204;-61
2023/09/30 01:08:37;;;;;;;8.30;5.43;;;;;;;-144.30;53.13;84710.66;5031879;28;20608;-61
2023/09/30 01:11:04;;;;;;;12.13;4.97;;;;;;;-144.30;52.76;84716.63;5030838;28;20205;-61
2023/09/30 01:13:35;;;;;;;10.25;5.57;;;;;;;-144.30;52.83;84700.72;5031676;28;20194;-62
2023/09/30 01:16:04;;;;;;;6.20;5.03;;;;;;;-144.30;52.86;84718.63;5031721;28;20259;-61
2023/09/30 01:18:33;;;;;;;7.47;5.80;;;;;;;-144.30;52.98;84768.31;5031484;28;20208;-60
2023/09/30 01:21:04;;;;;;;6.72;5.53;;;;;;;-144.30;53.16;84708.66;5031750;28;20197;-61
2023/09/30 01:23:33;;;;;;;8.05;5.25;;;;;;;-144.30;53.01;84708.66;5031435;28;20251;-61
2023/09/30 01:26:03;;;;;;;16.10;6.05;;;;;;;-144.30;53.13;84746.44;5031625;28;20193;-61
2023/09/30 01:28:30;;;;;;;8.73;6.10;;;;;;;-144.30;53.31;84724.56;5031302;28;20724;-61
2023/09/30 01:30:57;;;;;;;11.75;5.80;;;;;;;-144.30;53.60;84734.50;5031634;28;20270;-62
2023/09/30 01:33:24;;;;;;;6.97;5.55;;;;;;;-144.30;53.82;84776.25;5031499;28;20771;-62
2023/09/30 01:35:51;;;;;;;13.70;5.57;;;;;;;-144.30;53.82;84766.31;5031523;28;20698;-63
2023/09/30 01:38:18;;;;;;;13.50;5.72;;;;;;;-144.30;54.06;84762.34;5031440;28;20669;-62
2023/09/30 01:40:46;;;;;;;13.70;5.60;;;;;;;-144.30;54.26;84776.25;5031851;28;20208;-62
2023/09/30 01:43:13;;;;;;;11.50;5.53;;;;;;;-144.30;54.38;84744.44;5031067;28;20674;-62
2023/09/30 01:45:41;;;;;;;7.28;5.57;;;;;;;-144.30;54.49;84756.38;5031304;28;20737;-61
2023/09/30 01:48:10;;;;;;;6.72;5.45;;;;;;;-144.30;55.12;84798.13;5031194;28;20224;-61
2023/09/30 01:50:37;;;;;;;13.80;5.85;;;;;;;-144.30;55.42;84796.13;5031048;28;20193;-60
2023/09/30 01:53:06;;;;;;;7.50;5.88;;;;;;;-144.30;55.73;84790.16;5030999;28;20229;-60
2023/09/30 01:55:33;;;;;;;9.52;6.05;;;;;;;-144.30;55.70;84812.03;5030959;28;20259;-61
2023/09/30 01:58:01;;;;;;;9.38;6.22;;;;;;;-144.30;55.76;84875.63;5030818;28;20201;-60
2023/09/30 02:00:29;;;;;;;9.02;6.68;;;;;;;-144.30;56.15;84859.72;5030794;28;20193;-60
2023/09/30 02:02:56;;;;;;;10.70;6.53;;;;;;;-144.30;56.49;84865.69;5030966;28;20197;-61
2023/09/30 02:05:23;;;;;;;6.45;5.38;;;;;;;-144.30;56.41;84847.81;5030732;28;20200;-61
2023/09/30 02:07:50;;;;;;;9.95;5.80;;;;;;;-144.30;56.34;84851.78;5030807;28;20632;-60
2023/09/30 02:10:18;;;;;;;6.50;5.90;;;;;;;-144.30;56.61;84867.69;5030678;28;20200;-60
2023/09/30 02:12:45;;;;;;;12.70;6.25;;;;;;;-144.30;56.77;84841.84;5030862;28;20198;-60
2023/09/30 02:15:14;;;;;;;8.35;5.88;;;;;;;-144.30;56.58;84871.66;5030880;28;20206;-62
2023/09/30 02:17:45;;;;;;;7.45;5.93;;;;;;;-144.30;56.45;84849.78;5030501;28;20212;-62
2023/09/30 02:20:15;;;;;;;6.28;5.68;;;;;;;-144.30;56.05;84823.94;5030579;28;20201;-63
2023/09/30 02:22:44;;;;;;;6.47;5.72;;;;;;;-144.30;56.09;84849.78;5030352;28;20723;-62
2023/09/30 02:25:12;;;;;;;6.28;5.75;;;;;;;-144.30;56.31;84837.88;5030497;28;20201;-62
2023/09/30 02:27:41;;;;;;;12.75;6.38;;;;;;;-144.30;56.24;84853.78;5030724;28;20575;-62
2023/09/30 02:30:10;;;;;;;9.82;5.93;;;;;;;-144.30;56.30;84827.94;5030384;28;20205;-61
2023/09/30 02:32:40;;;;;;;5.85;5.05;;;;;;;-144.30;56.95;84867.69;5030461;28;20670;-62
2023/09/30 02:35:08;;;;;;;7.57;5.63;;;;;;;-144.30;57.61;84728.56;5030231;28;20202;-61
2023/09/30 02:37:36;;;;;;;8.60;5.95;;;;;;;-144.30;57.89;84893.53;5030144;28;20594;-61
2023/09/30 02:40:05;;;;;;;11.68;5.97;;;;;;;-144.30;58.11;84891.53;5030400;28;20197;-61
2023/09/30 02:42:32;;;;;;;17.45;6.25;;;;;;;-144.30;57.99;84867.69;5030252;28;20709;-61
2023/09/30 02:45:01;;;;;;;10.38;6.10;;;;;;;-144.30;57.89;84617.25;5030333;28;20201;-61
2023/09/30 02:47:28;;;;;;;13.52;6.68;;;;;;;-144.30;57.94;85468.00;5030255;28;20560;-61
2023/09/30 02:49:58;;;;;;;13.18;6.43;;;;;;;-144.30;57.55;84895.50;5029727;28;20229;-60
2023/09/30 02:52:25;;;;;;;8.88;6.32;;;;;;;-144.30;57.34;84907.44;5030005;28;20203;-61
2023/09/30 02:54:52;;;;;;;7.47;6.75;;;;;;;-144.30;57.40;84899.47;5030097;28;20233;-61
2023/09/30 02:57:19;;;;;;;8.80;6.45;;;;;;;-144.30;57.62;84893.53;5029983;28;20201;-60
2023/09/30 02:59:46;;;;;;;8.60;6.80;;;;;;;-144.30;57.33;84887.56;5033349;28;20204;-60
2023/09/30 03:02:14;;;;;;;7.80;5.93;;;;;;;-144.30;57.21;84907.44;5049086;28;20678;-60
2023/09/30 03:04:42;;;;;;;8.95;5.90;;;;;;;-144.30;57.11;84919.34;5049249;28;20300;-61
2023/09/30 03:07:11;;;;;;;10.32;6.38;;;;;;;-144.30;57.08;84875.63;5049883;28;20208;-61
2023/09/30 03:09:38;;;;;;;8.25;6.25;;;;;;;-144.30;56.97;84951.16;5049404;28;20318;-61
2023/09/30 03:12:08;;;;;;;17.15;6.22;;;;;;;-144.30;56.91;84909.41;5049033;28;20215;-64
2023/09/30 03:14:35;;;;;;;10.88;6.22;;;;;;;-144.30;56.75;84955.13;5048328;28;20433;-61
2023/09/30 03:17:03;;;;;;;14.35;5.88;;;;;;;-144.30;57.28;84955.13;5048394;28;20204;-64
2023/09/30 03:19:30;;;;;;;8.23;6.38;;;;;;;-144.30;57.19;84903.47;5049649;28;20262;-64
2023/09/30 03:21:57;;;;;;;10.00;6.80;;;;;;;-144.30;56.91;84963.09;5049237;28;20211;-60
2023/09/30 03:24:26;;;;;;;7.82;5.82;;;;;;;-144.30;57.01;84939.25;5048084;28;20690;-64
2023/09/30 03:26:53;;;;;;;14.68;6.63;;;;;;;-144.30;56.94;84929.28;5050017;28;20200;-63
2023/09/30 03:29:20;;;;;;;12.38;6.22;;;;;;;-144.30;56.92;84899.47;5049895;28;20260;-63
2023/09/30 03:31:47;;;;;;;10.05;6.75;;;;;;;-144.30;57.26;84931.28;5049526;28;20207;-60
2023/09/30 03:34:16;;;;;;;10.88;6.05;;;;;;;-144.30;57.47;84927.31;5050089;28;20204;-60
2023/09/30 03:36:44;;;;;;;9.15;6.13;;;;;;;-144.30;57.90;84911.41;5052761;28;20204;-60
2023/09/30 03:39:14;;;;;;;11.10;6.57;;;;;;;-144.30;57.59;84919.34;5053496;28;20196;-61
2023/09/30 03:41:43;;;;;;;6.88;5.38;;;;;;;-144.30;57.76;84959.13;5053514;28;20203;-61
2023/09/30 03:44:10;;;;;;;9.00;6.43;;;;;;;-144.30;57.65;84967.06;5053259;28;20199;-60
2023/09/30 03:46:37;;;;;;;10.63;6.38;;;;;;;-144.30;57.82;84923.34;5053404;28;20203;-70
2023/09/30 03:49:04;;;;;;;10.93;6.40;;;;;;;-144.30;57.72;84977.00;5053411;28;20590;-61
2023/09/30 03:51:31;;;;;;;8.77;6.50;;;;;;;-144.30;57.77;84967.06;5053252;28;20205;-60
2023/09/30 03:53:58;;;;;;;10.23;5.82;;;;;;;-144.30;57.78;84965.06;5053111;28;20255;-58
2023/09/30 03:56:25;;;;;;;11.95;7.18;;;;;;;-144.30;58.21;84959.13;5053263;28;20207;-59
2023/09/30 03:58:53;;;;;;;8.18;5.97;;;;;;;-144.30;58.33;84971.03;5053011;28;20223;-60
2023/09/30 04:01:20;;;;;;;15.77;6.32;;;;;;;-144.30;58.42;84973.03;5052992;28;20204;-60
2023/09/30 04:03:47;;;;;;;8.35;7.20;;;;;;;-144.30;58.18;84949.19;5053134;28;20572;-61
2023/09/30 04:06:14;;;;;;;12.00;7.55;;;;;;;-144.30;58.29;84982.97;5053066;28;20206;-62
2023/09/30 04:08:43;;;;;;;9.65;6.32;;;;;;;-144.30;58.51;84998.88;5051484;28;20230;-61
2023/09/30 04:11:16;;;;;;;15.55;6.60;;;;;;;-144.30;58.34;84992.91;5051334;28;20196;-60
2023/09/30 04:13:43;;;;;;;12.82;6.15;;;;;;;-144.30;58.33;85018.75;5051438;28;20204;-64
2023/09/30 04:16:12;;;;;;;8.07;6.30;;;;;;;-144.30;58.18;84625.19;5051182;28;20207;-61
2023/09/30 04:18:40;;;;;;;8.68;5.93;;;;;;;-144.30;58.56;84931.28;5052767;28;20207;-60
2023/09/30 04:21:07;;;;;;;9.40;6.72;;;;;;;-144.30;58.77;85008.81;5052242;28;20200;-59
2023/09/30 04:23:36;;;;;;;6.57;5.85;;;;;;;-144.30;58.93;85018.75;5050843;28;20201;-63
2023/09/30 04:26:04;;;;;;;7.07;6.10;;;;;;;-144.30;58.78;84921.34;5053106;28;20541;-62
2023/09/30 04:28:31;;;;;;;8.95;6.90;;;;;;;-144.30;58.69;85157.88;5050821;28;20196;-62
2023/09/30 04:30:58;;;;;;;10.90;6.55;;;;;;;-144.30;59.03;85000.84;5052549;28;20196;-63
2023/09/30 04:33:27;;;;;;;13.32;6.72;;;;;;;-144.30;59.15;84969.06;5050428;28;20224;-63
2023/09/30 04:35:53;;;;;;;9.75;6.45;;;;;;;-144.30;58.93;85022.72;5046143;28;20208;-63
2023/09/30 04:38:20;;;;;;;10.43;6.57;;;;;;;-144.30;58.81;84990.91;5041123;28;20197;-62
2023/09/30 04:40:51;;;;;;;12.25;6.75;;;;;;;-144.30;58.59;84963.09;5042355;28;20676;-61
2023/09/30 04:43:18;;;;;;;9.13;7.05;;;;;;;-144.30;58.64;84998.88;5041531;28;20271;-62
2023/09/30 04:45:45;;;;;;;9.10;6.15;;;;;;;-144.30;58.77;85006.81;5048664;28;20200;-62
2023/09/30 04:48:12;;;;;;;10.10;6.70;;;;;;;-144.30;58.62;84994.91;5049388;28;20211;-63
2023/09/30 04:50:41;;;;;;;8.65;6.65;;;;;;;-144.30;58.45;84980.97;5051469;28;20731;-62
2023/09/30 04:53:09;;;;;;;8.93;6.55;;;;;;;-144.30;58.39;84990.91;5051438;28;20236;-63
2023/09/30 04:55:37;;;;;;;9.82;6.32;;;;;;;-144.30;58.39;84998.88;5050780;28;20207;-62
2023/09/30 04:58:05;;;;;;;10.82;5.97;;;;;;;-144.30;57.87;84998.88;5042569;28;20201;-63
2023/09/30 05:00:32;;;;;;;13.18;6.90;;;;;;;-144.30;57.56;84963.09;5043558;28;20204;-63
2023/09/30 05:02:59;;;;;;;19.27;6.95;;;;;;;-144.30;57.18;84953.16;5046090;28;20201;-63
2023/09/30 05:05:26;;;;;;;10.80;6.95;;;;;;;-144.30;57.18;84901.47;5044549;28;20623;-64
2023/09/30 05:07:55;;;;;;;10.23;6.63;;;;;;;-144.30;57.43;84925.31;5050626;28;20208;-63
2023/09/30 05:10:22;;;;;;;11.13;6.53;;;;;;;-144.30;57.02;84939.25;5048434;28;20603;-64
2023/09/30 05:12:49;;;;;;;14.32;7.72;;;;;;;-144.30;55.77;84895.50;5042472;28;20624;-62
2023/09/30 05:15:17;;;;;;;18.92;7.13;;;;;;;-144.30;54.14;84986.94;5031061;28;20692;-62
2023/09/30 05:17:44;;;;;;;8.45;6.63;;;;;;;-144.30;52.50;84780.22;5031175;28;20208;-62
2023/09/30 05:20:12;;;;;;;8.35;6.88;;;;;;;-144.30;50.51;84660.97;5031924;28;20204;-63
2023/09/30 05:22:40;;;;;;;16.15;7.47;;;;;;;-144.30;47.69;84537.75;5031894;28;20237;-63
2023/09/30 05:25:09;;;;;;;14.38;7.78;;;;;;;-144.30;45.72;84414.53;5031669;28;20197;-63
2023/09/30 05:27:36;;;;;;;14.85;8.25;;;;;;;-144.30;43.77;84257.53;5049778;28;20203;-59
2023/09/30 05:30:03;;;;;;;11.68;9.30;;;;;;;-144.30;42.41;84130.34;5048718;28;20220;-61
2023/09/30 05:32:30;;;;;;;13.50;7.03;;;;;;;-144.30;41.17;84040.91;5040396;28;20660;-61
2023/09/30 05:34:57;;;;;;;10.15;7.70;;;;;;;-144.30;39.82;83959.44;5045598;28;20195;-61
2023/09/30 05:37:26;;;;;;;13.80;6.55;;;;;;;-144.30;38.87;83862.09;5040064;28;20225;-61
2023/09/30 05:39:53;;;;;;;19.70;7.07;;;;;;;-144.30;38.66;83786.56;5039751;28;20677;-60
2023/09/30 05:42:22;;;;;;;11.65;6.53;;;;;;;-144.30;37.41;83699.16;5040917;28;20656;-60
2023/09/30 05:44:48;;;;;;;15.60;7.32;;;;;;;-144.30;36.75;83587.88;5047466;28;20197;-60
2023/09/30 05:47:16;;;;;;;12.50;7.32;;;;;;;-144.30;35.58;83464.69;5048822;28;20686;-60
2023/09/30 05:49:43;;;;;;;19.45;7.47;;;;;;;-144.30;34.38;83419.00;5046163;28;20268;-61
2023/09/30 05:52:10;;;;;;;16.00;7.07;;;;;;;-144.30;34.25;83325.63;5039557;28;20220;-60
2023/09/30 05:54:37;;;;;;;10.43;6.82;;;;;;;-144.30;33.99;83250.13;5041469;28;20617;-61
2023/09/30 05:57:04;;;;;;;16.75;7.43;;;;;;;-144.30;33.36;83176.63;5040160;28;20217;-61
2023/09/30 05:59:32;;;;;;;12.43;8.18;;;;;;;-144.30;32.56;83057.41;5039601;28;20263;-61
2023/09/30 06:01:59;;;;;;;17.65;10.27;;;;;;;-144.30;32.56;83049.47;5049088;28;20200;-61
2023/09/30 06:04:26;;;;;;;13.32;8.40;;;;;;;-144.30;32.03;83035.56;5050464;28;20591;-60
2023/09/30 06:06:53;;;;;;;13.82;9.57;;;;;;;-144.30;31.88;83019.69;5050712;28;20582;-60
2023/09/30 06:09:25;;;;;;;15.18;7.28;;;;;;;-144.30;31.12;82870.69;5050706;28;20318;-61
2023/09/30 06:11:51;;;;;;;13.50;7.70;;;;;;;-144.30;30.63;82751.50;5050655;28;20687;-62
2023/09/30 06:14:18;;;;;;;15.48;7.38;;;;;;;-144.30;29.84;82660.13;5050260;28;20207;-63
2023/09/30 06:16:47;;;;;;;14.43;7.70;;;;;;;-144.30;29.51;82570.75;5051090;28;20192;-65
2023/09/30 06:19:14;;;;;;;19.20;7.53;;;;;;;-144.30;29.29;82467.44;5050633;28;20235;-66
2023/09/30 06:21:42;;;;;;;13.00;7.45;;;;;;;-144.30;29.02;82405.88;5048002;28;20205;-67
2023/09/30 06:24:09;;;;;;;20.02;9.65;;;;;;;-144.30;28.39;82252.94;5041399;28;20204;-64
2023/09/30 06:26:36;;;;;;;21.63;7.68;;;;;;;-144.30;27.93;82153.63;5042354;28;20190;-66
2023/09/30 06:29:03;;;;;;;7.60;6.90;;;;;;;-144.30;27.76;82070.22;5042464;28;20201;-69
2023/09/30 06:31:30;;;;;;;17.92;7.75;;;;;;;-144.30;27.41;82030.50;5051064;28;20204;-68
2023/09/30 06:34:00;;;;;;;14.68;7.85;;;;;;;-144.30;27.36;81974.91;5050688;28;20196;-67
2023/09/30 06:36:27;;;;;;;19.55;8.10;;;;;;;-144.30;26.80;81780.28;5050540;28;20249;-68
2023/09/30 06:38:54;;;;;;;12.20;7.22;;;;;;;-144.30;26.34;81681.00;5049775;28;20203;-69
2023/09/30 06:41:20;;;;;;;18.42;7.53;;;;;;;-144.30;26.08;81575.75;5041640;28;20749;-61
2023/09/30 06:43:48;;;;;;;13.68;6.97;;;;;;;-144.30;25.52;81496.31;5045257;28;20579;-60
2023/09/30 06:46:16;;;;;;;13.95;6.20;;;;;;;-144.30;25.47;81486.38;5033761;28;20204;-61
2023/09/30 06:48:43;;;;;;;22.17;7.57;;;;;;;-144.30;25.10;81291.78;5033182;28;20671;-61
2023/09/30 06:51:17;;;;;;;7.13;6.10;;;;;;;-144.30;24.29;80964.19;5033024;28;20692;-62
2023/09/30 06:53:44;;;;;;;13.13;6.45;;;;;;;-144.30;23.77;80731.91;5032723;28;20224;-61
2023/09/30 06:56:10;;;;;;;12.23;6.22;;;;;;;-144.30;23.56;80757.72;5033515;28;20211;-59
2023/09/30 06:58:37;;;;;;;10.57;7.30;;;;;;;-144.30;23.69;80926.47;5041429;28;20220;-61
2023/09/30 07:01:04;;;;;;;38.72;10.05;;;;;;;-144.30;24.03;80993.97;5042606;28;20196;-61
2023/09/30 07:03:32;;;;;;;44.40;12.10;;;;;;;-144.30;23.48;80930.44;5038434;28;20197;-61
2023/09/30 07:06:00;;;;;;;15.52;8.60;;;;;;;-144.30;23.31;80813.31;5030158;28;20276;-61
2023/09/30 07:08:29;;;;;;;16.20;7.55;;;;;;;-144.30;23.57;80837.13;5029781;28;20580;-61
2023/09/30 07:10:56;;;;;;;13.32;6.82;;;;;;;-144.30;23.16;80686.25;5033623;28;20661;-61
2023/09/30 07:13:23;;;;;;;21.42;6.90;;;;;;;-144.30;22.95;80553.25;5034271;28;20608;-62
2023/09/30 07:15:50;;;;;;;267.85;29.85;;;;;;;-144.30;22.86;80539.34;5033902;28;20212;-61
2023/09/30 07:18:18;;;;;;;82.22;13.93;;;;;;;-144.30;23.11;80716.03;5033851;28;20204;-62
2023/09/30 07:20:45;;;;;;;13.82;7.07;;;;;;;-144.30;23.75;81037.66;5033831;28;20197;-63
2023/09/30 07:23:13;;;;;;;16.38;6.70;;;;;;;-144.30;24.57;81615.47;5033924;28;20576;-62
2023/09/30 07:25:42;;;;;;;20.58;7.68;;;;;;;-144.30;25.63;82010.66;5036574;28;20197;-60
2023/09/30 07:28:11;;;;;;;17.80;7.22;;;;;;;-144.30;26.82;82427.72;5034566;28;20228;-64
2023/09/30 07:30:38;;;;;;;12.30;6.85;;;;;;;-144.30;27.72;82678.00;5034181;28;20224;-64
2023/09/30 07:33:06;;;;;;;16.23;7.32;;;;;;;-144.30;28.58;82864.72;5034614;28;20593;-64
2023/09/30 07:35:33;;;;;;;11.88;7.15;;;;;;;-144.30;29.42;83003.78;5034233;28;20208;-64
2023/09/30 07:38:00;;;;;;;38.63;9.05;;;;;;;-144.30;29.92;83085.22;5034602;28;20204;-65
2023/09/30 07:40:27;;;;;;;25.95;9.13;;;;;;;-144.30;30.58;83162.72;5034597;28;20197;-65
2023/09/30 07:42:57;;;;;;;22.25;8.55;;;;;;;-144.30;31.16;83222.31;5033917;28;20203;-64
2023/09/30 07:45:24;;;;;;;20.55;8.57;;;;;;;-144.30;31.58;83301.78;5033993;28;20203;-65
2023/09/30 07:47:52;;;;;;;34.50;8.43;;;;;;;-144.30;31.54;83335.56;5033735;28;20207;-65
2023/09/30 07:50:18;;;;;;;18.42;8.57;;;;;;;-144.30;31.88;83349.47;5033539;28;20221;-63
2023/09/30 07:52:46;;;;;;;22.48;9.18;;;;;;;-144.30;32.41;83387.22;5035705;28;20291;-60
2023/09/30 07:55:13;;;;;;;28.73;10.00;;;;;;;-144.30;32.24;83355.41;5035128;28;20223;-63
2023/09/30 07:57:42;;;;;;;11.07;8.38;;;;;;;-144.30;32.27;83351.44;5049189;28;20661;-64
2023/09/30 08:00:15;;;;;;;24.73;9.85;;;;;;;-144.30;32.27;83361.38;5052185;28;20637;-61
2023/09/30 08:02:42;;;;;;;13.63;8.48;;;;;;;-144.30;32.46;83413.03;5052637;28;20294;-60
2023/09/30 08:05:10;;;;;;;21.23;8.90;;;;;;;-144.30;32.63;83434.91;5053152;28;20250;-61
2023/09/30 08:07:37;;;;;;;37.58;8.85;;;;;;;-144.30;33.17;83452.78;5054786;28;20279;-61
2023/09/30 08:10:06;;;;;;;24.80;8.05;;;;;;;-144.30;32.90;83470.66;5062484;28;20246;-61
2023/09/30 08:12:33;;;;;;;17.67;7.82;;;;;;;-144.30;32.84;83464.69;5052099;28;20681;-63
2023/09/30 08:15:03;;;;;;;12.70;7.10;;;;;;;-144.30;33.28;83518.34;5052544;28;20204;-63
2023/09/30 08:17:31;;;;;;;19.45;8.13;;;;;;;-144.30;33.09;83504.44;5052768;28;20201;-62
2023/09/30 08:19:58;;;;;;;19.60;6.55;;;;;;;-144.30;33.15;83492.50;5052115;28;20220;-61
2023/09/30 08:22:27;;;;;;;23.25;7.43;;;;;;;-144.30;32.75;83411.06;5052775;28;20193;-61
2023/09/30 08:24:54;;;;;;;16.50;7.03;;;;;;;-144.30;33.25;83444.81;5052549;28;20227;-61
2023/09/30 08:27:23;;;;;;;9.48;6.75;;;;;;;-144.30;32.75;83365.34;5052444;28;20205;-65
2023/09/30 08:29:53;;;;;;;16.98;7.38;;;;;;;-144.30;32.80;83448.81;5053374;28;20742;-65
2023/09/30 08:32:21;;;;;;;17.15;8.07;;;;;;;-144.30;32.33;83456.75;5053067;28;20600;-63
2023/09/30 08:34:49;;;;;;;17.15;7.78;;;;;;;-144.30;32.21;83452.78;5052448;28;20228;-65
2023/09/30 08:37:16;;;;;;;15.82;6.40;;;;;;;-144.30;32.43;83409.06;5052762;28;20200;-65
2023/09/30 08:39:43;;;;;;;14.30;7.10;;;;;;;-144.30;32.00;83399.13;5052483;28;20577;-65
2023/09/30 08:42:12;;;;;;;12.90;5.97;;;;;;;-144.30;31.59;83420.97;5052102;28;20204;-63
2023/09/30 08:44:40;;;;;;;16.73;6.47;;;;;;;-144.30;31.73;83397.16;5052416;28;20203;-62
2023/09/30 08:47:07;;;;;;;8.55;6.75;;;;;;;-144.30;31.59;83311.72;5052332;28;20201;-62
2023/09/30 08:49:39;;;;;;;12.32;6.75;;;;;;;-144.30;31.70;83343.50;5052295;28;20197;-62
2023/09/30 08:52:10;;;;;;;12.55;6.03;;;;;;;-144.30;31.30;83381.25;5052528;28;20204;-62
2023/09/30 08:54:37;;;;;;;10.02;6.13;;;;;;;-144.30;31.27;83407.06;5051953;28;20747;-65
2023/09/30 08:57:05;;;;;;;12.50;6.30;;;;;;;-144.30;31.25;83359.41;5052030;28;20208;-65
2023/09/30 08:59:35;;;;;;;12.18;5.97;;;;;;;-144.30;31.07;83359.41;5051871;28;20204;-65
2023/09/30 09:02:03;;;;;;;8.63;6.00;;;;;;;-144.30;32.44;83355.41;5052195;28;20192;-65
2023/09/30 09:04:30;;;;;;;10.65;5.60;;;;;;;-144.30;31.49;83335.56;5051993;28;20254;-66
2023/09/30 09:06:57;;;;;;;12.85;5.55;;;;;;;-144.30;31.10;83397.16;5052109;28;20283;-66
2023/09/30 09:09:26;;;;;;;6.22;5.32;;;;;;;-144.30;31.44;83397.16;5051376;28;20205;-67
2023/09/30 09:11:52;;;;;;;64.45;8.30;;;;;;;-144.30;31.57;83430.91;5051046;28;20247;-65
2023/09/30 09:14:20;;;;;;;20.23;5.93;;;;;;;-144.30;32.65;83432.91;5051463;28;20208;-66
2023/09/30 09:16:53;;;;;;;15.95;5.55;;;;;;;-144.30;34.89;83401.13;5051637;28;20204;-67
2023/09/30 09:19:21;;;;;;;9.85;5.35;;;;;;;-144.30;32.22;83452.78;5051596;28;20207;-67
2023/09/30 09:22:00;;;;;;;12.73;6.10;;;;;;;-144.30;32.53;83476.63;5051424;28;20199;-66
2023/09/30 09:24:33;;;;;;;10.55;5.68;;;;;;;-144.30;32.03;83456.75;5051931;28;20672;-65
2023/09/30 09:27:07;;;;;;;11.80;5.78;;;;;;;-144.30;32.27;83468.66;5050024;28;20635;-65
2023/09/30 09:29:34;;;;;;;8.15;5.10;;;;;;;-144.30;31.58;83498.47;5051269;28;20201;-66
2023/09/30 09:32:09;;;;;;;8.30;5.85;;;;;;;-144.30;31.85;83500.47;5050221;28;20787;-66
2023/09/30 09:34:36;;;;;;;8.60;5.65;;;;;;;-144.30;32.53;83448.81;5051451;28;20196;-67
2023/09/30 09:37:17;;;;;;;17.23;5.90;;;;;;;-144.30;34.17;83468.66;5051282;28;20220;-67
2023/09/30 09:39:53;;;;;;;17.67;6.05;;;;;;;-144.30;32.16;83468.66;5051264;28;20199;-66
2023/09/30 09:42:27;;;;;;;8.90;5.22;;;;;;;-144.30;32.36;83472.66;5039204;28;20196;-67
2023/09/30 09:44:57;;;;;;;12.63;5.68;;;;;;;-144.30;33.89;83440.84;5040080;28;20211;-66
2023/09/30 09:47:25;;;;;;;13.00;6.07;;;;;;;-144.30;32.14;83428.94;5028697;28;20266;-67
2023/09/30 09:49:53;;;;;;;10.63;5.57;;;;;;;-144.30;32.34;83456.75;5029623;28;20253;-67
2023/09/30 09:52:20;;;;;;;7.50;5.30;;;;;;;-144.30;31.85;83434.91;5030699;28;20228;-60
2023/09/30 09:54:48;;;;;;;15.02;5.80;;;;;;;-144.30;30.90;83488.53;5028670;28;20249;-60
2023/09/30 09:57:18;;;;;;;11.20;5.30;;;;;;;-144.30;31.78;83462.72;5030373;28;20201;-60
2023/09/30 09:59:47;;;;;;;6.45;5.78;;;;;;;-144.30;31.74;83351.44;5030973;28;20283;-61
2023/09/30 10:02:15;;;;;;;11.02;5.68;;;;;;;-144.30;31.09;83417.00;5030855;28;20197;-59
2023/09/30 10:04:43;;;;;;;10.45;5.78;;;;;;;-144.30;30.43;83470.66;5030691;28;20681;-59
2023/09/30 10:07:14;;;;;;;12.48;6.20;;;;;;;-144.30;30.23;83420.97;5030528;28;20263;-59
2023/09/30 10:09:47;;;;;;;14.93;6.32;;;;;;;-144.30;30.61;83450.78;5038004;28;20204;-60
2023/09/30 10:12:17;;;;;;;18.73;13.95;;;;;;;-144.30;30.38;83389.19;5050752;28;20236;-61
2023/09/30 10:14:44;;;;;;;15.98;10.02;;;;;;;-144.30;30.56;83168.66;5047569;28;20204;-59
2023/09/30 10:17:11;;;;;;;15.68;9.90;;;;;;;-144.30;29.84;83355.41;5050473;28;20742;-60
2023/09/30 10:20:06;;;;;;;9.45;6.30;;;;;;;-144.30;29.75;83333.56;5049818;28;20201;-61
2023/09/30 10:22:34;;;;;;;9.02;6.30;;;;;;;-144.30;29.80;83391.19;5047186;28;20587;-60
2023/09/30 10:25:05;;;;;;;7.38;5.68;;;;;;;-144.30;29.58;83365.34;5047336;28;20208;-65
2023/09/30 10:27:37;;;;;;;9.85;6.55;;;;;;;-144.30;29.78;83341.50;5040973;28;20223;-63
2023/09/30 10:30:13;;;;;;;21.65;7.15;;;;;;;-144.30;29.09;83347.47;5040870;28;20742;-63
2023/09/30 10:33:14;;;;;;;14.85;6.50;;;;;;;-144.30;28.66;83295.81;5038036;28;20197;-62
2023/09/30 10:35:50;;;;;;;10.30;6.07;;;;;;;-144.30;31.49;83291.84;5040742;28;20663;-61
2023/09/30 10:38:42;;;;;;;7.72;5.90;;;;;;;-144.30;28.52;83281.91;5040824;28;20220;-61
2023/09/30 10:41:11;;;;;;;11.85;5.57;;;;;;;-144.30;28.41;83289.84;5040234;28;20207;-61
2023/09/30 10:43:40;;;;;;;16.95;5.70;;;;;;;-144.30;28.58;83301.78;5040535;28;20197;-62
2023/09/30 10:46:35;;;;;;;8.98;5.65;;;;;;;-144.30;28.08;83275.94;5038972;28;20276;-61
2023/09/30 10:49:18;;;;;;;5.93;5.32;;;;;;;-144.30;27.91;83363.38;5037826;28;20195;-61
2023/09/30 10:51:47;;;;;;;13.52;5.30;;;;;;;-144.30;27.73;83371.31;5038908;28;20583;-64
2023/09/30 10:54:14;;;;;;;16.63;5.90;;;;;;;-144.30;28.16;83313.69;5038447;28;20228;-59
2023/09/30 10:56:41;;;;;;;11.38;5.63;;;;;;;-144.30;28.44;83309.72;5037738;28;20684;-66
2023/09/30 10:59:09;;;;;;;10.50;5.25;;;;;;;-144.30;28.25;83391.19;5041594;28;20197;-64
2023/09/30 11:01:36;;;;;;;13.88;5.00;;;;;;;-144.30;28.08;83395.16;5039153;28;20228;-63
2023/09/30 11:04:05;;;;;;;7.07;5.70;;;;;;;-144.30;28.11;83419.00;5040304;28;20262;-64
2023/09/30 11:06:33;;;;;;;8.90;5.38;;;;;;;-144.30;27.91;83436.88;5040501;28;20695;-61
2023/09/30 11:09:03;;;;;;;9.75;6.20;;;;;;;-144.30;27.96;83458.72;5039864;28;20289;-65
2023/09/30 11:11:37;;;;;;;9.52;6.53;;;;;;;-144.30;28.27;83446.81;5040713;28;20220;-67
2023/09/30 11:14:06;;;;;;;10.55;5.78;;;;;;;-144.30;27.82;83434.91;5041273;28;20707;-68
2023/09/30 11:16:47;;;;;;;7.00;6.30;;;;;;;-144.30;28.17;83448.81;5038507;28;20620;-67
2023/09/30 11:19:14;;;;;;;7.07;5.28;;;;;;;-144.30;28.43;83291.84;5038297;28;20204;-68